sensor_id;sensor_type;location;lat;lon;timestamp;temperature;humidity
29663;DHT22;16578;53.266;7.920;2023-06-26T00:01:57;26.10;60.70
29663;DHT22;16578;53.266;7.920;2023-06-26T00:04:23;26.10;60.50
29663;DHT22;16578;53.266;7.920;2023-06-26T00:06:48;26.10;60.70
29663;DHT22;16578;53.266;7.920;2023-06-26T00:09:14;26.10;60.80
29663;DHT22;16578;53.266;7.920;2023-06-26T00:11:39;26.00;60.70
29663;DHT22;16578;53.266;7.920;2023-06-26T00:14:05;26.00;60.70
29663;DHT22;16578;53.266;7.920;2023-06-26T00:16:31;26.00;60.90
29663;DHT22;16578;53.266;7.920;2023-06-26T00:18:57;26.00;61.00
29663;DHT22;16578;53.266;7.920;2023-06-26T00:21:24;26.00;60.80
29663;DHT22;16578;53.266;7.920;2023-06-26T00:23:51;25.90;60.80
29663;DHT22;16578;53.266;7.920;2023-06-26T00:26:16;25.90;61.00
29663;DHT22;16578;53.266;7.920;2023-06-26T00:28:42;25.90;61.10
29663;DHT22;16578;53.266;7.920;2023-06-26T00:31:07;25.90;61.30
29663;DHT22;16578;53.266;7.920;2023-06-26T00:33:33;25.90;61.40
29663;DHT22;16578;53.266;7.920;2023-06-26T00:35:59;25.90;61.40
29663;DHT22;16578;53.266;7.920;2023-06-26T00:38:25;25.80;61.30
29663;DHT22;16578;53.266;7.920;2023-06-26T00:40:50;25.80;61.30
29663;DHT22;16578;53.266;7.920;2023-06-26T00:43:16;25.80;61.50
29663;DHT22;16578;53.266;7.920;2023-06-26T00:45:41;25.80;61.60
29663;DHT22;16578;53.266;7.920;2023-06-26T00:48:07;25.70;61.60
29663;DHT22;16578;53.266;7.920;2023-06-26T00:50:33;25.70;61.70
29663;DHT22;16578;53.266;7.920;2023-06-26T00:52:59;25.70;61.70
29663;DHT22;16578;53.266;7.920;2023-06-26T00:55:27;25.60;61.60
29663;DHT22;16578;53.266;7.920;2023-06-26T00:57:54;25.60;61.50
29663;DHT22;16578;53.266;7.920;2023-06-26T01:00:20;25.60;61.50
29663;DHT22;16578;53.266;7.920;2023-06-26T01:02:45;25.60;61.50
29663;DHT22;16578;53.266;7.920;2023-06-26T01:05:12;25.60;61.60
29663;DHT22;16578;53.266;7.920;2023-06-26T01:07:38;25.60;62.50
29663;DHT22;16578;53.266;7.920;2023-06-26T01:10:05;25.50;61.50
29663;DHT22;16578;53.266;7.920;2023-06-26T01:12:32;25.50;61.50
29663;DHT22;16578;53.266;7.920;2023-06-26T01:14:59;25.50;61.70
29663;DHT22;16578;53.266;7.920;2023-06-26T01:17:25;25.50;61.70
29663;DHT22;16578;53.266;7.920;2023-06-26T01:19:51;25.40;61.80
29663;DHT22;16578;53.266;7.920;2023-06-26T01:22:43;25.40;62.00
29663;DHT22;16578;53.266;7.920;2023-06-26T01:25:29;25.40;62.00
29663;DHT22;16578;53.266;7.920;2023-06-26T01:27:56;25.40;62.00
29663;DHT22;16578;53.266;7.920;2023-06-26T01:30:22;25.40;61.90
29663;DHT22;16578;53.266;7.920;2023-06-26T01:32:48;25.40;62.00
29663;DHT22;16578;53.266;7.920;2023-06-26T01:35:15;25.40;62.20
29663;DHT22;16578;53.266;7.920;2023-06-26T01:37:41;25.30;62.30
29663;DHT22;16578;53.266;7.920;2023-06-26T01:40:07;25.30;62.30
29663;DHT22;16578;53.266;7.920;2023-06-26T01:42:34;25.30;62.30
29663;DHT22;16578;53.266;7.920;2023-06-26T01:45:13;25.30;62.30
29663;DHT22;16578;53.266;7.920;2023-06-26T01:47:43;25.30;62.20
29663;DHT22;16578;53.266;7.920;2023-06-26T01:50:12;25.20;62.10
29663;DHT22;16578;53.266;7.920;2023-06-26T01:52:53;25.20;62.30
29663;DHT22;16578;53.266;7.920;2023-06-26T01:55:36;25.20;62.40
29663;DHT22;16578;53.266;7.920;2023-06-26T01:58:06;25.20;62.50
29663;DHT22;16578;53.266;7.920;2023-06-26T02:00:32;25.20;62.50
29663;DHT22;16578;53.266;7.920;2023-06-26T02:02:58;25.20;62.40
29663;DHT22;16578;53.266;7.920;2023-06-26T02:05:24;25.20;62.40
29663;DHT22;16578;53.266;7.920;2023-06-26T02:07:50;25.20;62.60
29663;DHT22;16578;53.266;7.920;2023-06-26T02:10:16;25.10;62.60
29663;DHT22;16578;53.266;7.920;2023-06-26T02:12:42;25.10;62.50
29663;DHT22;16578;53.266;7.920;2023-06-26T02:15:08;25.10;62.70
29663;DHT22;16578;53.266;7.920;2023-06-26T02:17:34;25.10;62.60
29663;DHT22;16578;53.266;7.920;2023-06-26T02:20:00;25.10;62.70
29663;DHT22;16578;53.266;7.920;2023-06-26T02:22:25;25.10;62.70
29663;DHT22;16578;53.266;7.920;2023-06-26T02:24:51;25.00;62.70
29663;DHT22;16578;53.266;7.920;2023-06-26T02:27:16;25.00;62.80
29663;DHT22;16578;53.266;7.920;2023-06-26T02:29:42;25.00;62.80
29663;DHT22;16578;53.266;7.920;2023-06-26T02:32:08;25.00;63.00
29663;DHT22;16578;53.266;7.920;2023-06-26T02:34:34;25.00;63.00
29663;DHT22;16578;53.266;7.920;2023-06-26T02:37:00;25.00;63.00
29663;DHT22;16578;53.266;7.920;2023-06-26T02:39:26;25.00;63.10
29663;DHT22;16578;53.266;7.920;2023-06-26T02:41:52;25.00;63.20
29663;DHT22;16578;53.266;7.920;2023-06-26T02:44:17;25.00;63.30
29663;DHT22;16578;53.266;7.920;2023-06-26T02:46:43;25.00;63.40
29663;DHT22;16578;53.266;7.920;2023-06-26T02:49:09;25.00;63.30
29663;DHT22;16578;53.266;7.920;2023-06-26T02:51:34;24.90;63.30
29663;DHT22;16578;53.266;7.920;2023-06-26T02:54:00;25.00;63.40
29663;DHT22;16578;53.266;7.920;2023-06-26T02:56:26;24.90;63.30
29663;DHT22;16578;53.266;7.920;2023-06-26T02:58:57;24.90;63.30
29663;DHT22;16578;53.266;7.920;2023-06-26T03:01:23;24.90;63.50
29663;DHT22;16578;53.266;7.920;2023-06-26T03:03:49;24.90;63.40
29663;DHT22;16578;53.266;7.920;2023-06-26T03:06:15;24.80;63.30
29663;DHT22;16578;53.266;7.920;2023-06-26T03:08:41;24.90;63.50
29663;DHT22;16578;53.266;7.920;2023-06-26T03:11:07;24.90;63.50
29663;DHT22;16578;53.266;7.920;2023-06-26T03:13:34;24.80;63.70
29663;DHT22;16578;53.266;7.920;2023-06-26T03:16:00;24.90;63.80
29663;DHT22;16578;53.266;7.920;2023-06-26T03:18:26;24.80;63.70
29663;DHT22;16578;53.266;7.920;2023-06-26T03:20:52;24.80;63.60
29663;DHT22;16578;53.266;7.920;2023-06-26T03:23:19;24.80;63.60
29663;DHT22;16578;53.266;7.920;2023-06-26T03:25:45;24.80;63.60
29663;DHT22;16578;53.266;7.920;2023-06-26T03:28:11;24.80;63.80
29663;DHT22;16578;53.266;7.920;2023-06-26T03:30:37;24.80;64.00
29663;DHT22;16578;53.266;7.920;2023-06-26T03:33:03;24.80;63.90
29663;DHT22;16578;53.266;7.920;2023-06-26T03:35:28;24.80;63.90
29663;DHT22;16578;53.266;7.920;2023-06-26T03:37:54;24.80;64.00
29663;DHT22;16578;53.266;7.920;2023-06-26T03:40:20;24.80;64.00
29663;DHT22;16578;53.266;7.920;2023-06-26T03:42:45;24.80;64.00
29663;DHT22;16578;53.266;7.920;2023-06-26T03:45:11;24.80;64.80
29663;DHT22;16578;53.266;7.920;2023-06-26T03:47:36;24.80;63.80
29663;DHT22;16578;53.266;7.920;2023-06-26T03:50:02;24.80;63.90
29663;DHT22;16578;53.266;7.920;2023-06-26T03:52:28;24.80;64.00
29663;DHT22;16578;53.266;7.920;2023-06-26T03:54:57;24.80;64.00
29663;DHT22;16578;53.266;7.920;2023-06-26T03:57:22;24.80;64.10
29663;DHT22;16578;53.266;7.920;2023-06-26T03:59:48;24.80;64.00
29663;DHT22;16578;53.266;7.920;2023-06-26T04:02:13;24.80;64.10
29663;DHT22;16578;53.266;7.920;2023-06-26T04:04:39;24.80;64.10
29663;DHT22;16578;53.266;7.920;2023-06-26T04:07:04;24.80;64.00
29663;DHT22;16578;53.266;7.920;2023-06-26T04:09:30;24.80;64.20
29663;DHT22;16578;53.266;7.920;2023-06-26T04:11:55;24.80;64.20
29663;DHT22;16578;53.266;7.920;2023-06-26T04:14:21;24.80;64.30
29663;DHT22;16578;53.266;7.920;2023-06-26T04:16:47;24.80;64.30
29663;DHT22;16578;53.266;7.920;2023-06-26T04:19:12;24.80;64.30
29663;DHT22;16578;53.266;7.920;2023-06-26T04:21:38;24.80;64.40
29663;DHT22;16578;53.266;7.920;2023-06-26T04:24:04;24.80;64.60
29663;DHT22;16578;53.266;7.920;2023-06-26T04:26:30;24.80;64.40
29663;DHT22;16578;53.266;7.920;2023-06-26T04:28:56;24.80;64.40
29663;DHT22;16578;53.266;7.920;2023-06-26T04:31:21;24.90;64.40
29663;DHT22;16578;53.266;7.920;2023-06-26T04:33:47;24.90;64.50
29663;DHT22;16578;53.266;7.920;2023-06-26T04:36:17;24.80;64.40
29663;DHT22;16578;53.266;7.920;2023-06-26T04:38:43;24.90;64.70
29663;DHT22;16578;53.266;7.920;2023-06-26T04:41:09;24.90;64.70
29663;DHT22;16578;53.266;7.920;2023-06-26T04:43:34;24.90;64.60
29663;DHT22;16578;53.266;7.920;2023-06-26T04:46:01;25.00;64.60
29663;DHT22;16578;53.266;7.920;2023-06-26T04:48:27;25.00;64.50
29663;DHT22;16578;53.266;7.920;2023-06-26T04:50:54;25.00;64.60
29663;DHT22;16578;53.266;7.920;2023-06-26T04:53:20;25.00;64.70
29663;DHT22;16578;53.266;7.920;2023-06-26T04:55:47;25.00;64.80
29663;DHT22;16578;53.266;7.920;2023-06-26T04:58:12;25.00;64.70
29663;DHT22;16578;53.266;7.920;2023-06-26T05:00:38;25.00;64.80
29663;DHT22;16578;53.266;7.920;2023-06-26T05:03:03;25.10;65.10
29663;DHT22;16578;53.266;7.920;2023-06-26T05:05:29;25.10;65.10
29663;DHT22;16578;53.266;7.920;2023-06-26T05:07:55;25.10;65.00
29663;DHT22;16578;53.266;7.920;2023-06-26T05:10:21;25.10;64.90
29663;DHT22;16578;53.266;7.920;2023-06-26T05:12:47;25.20;64.80
29663;DHT22;16578;53.266;7.920;2023-06-26T05:15:12;25.20;64.90
29663;DHT22;16578;53.266;7.920;2023-06-26T05:17:38;25.20;65.10
29663;DHT22;16578;53.266;7.920;2023-06-26T05:20:04;25.20;65.10
29663;DHT22;16578;53.266;7.920;2023-06-26T05:22:32;25.30;65.10
29663;DHT22;16578;53.266;7.920;2023-06-26T05:24:59;25.30;65.10
29663;DHT22;16578;53.266;7.920;2023-06-26T05:27:26;25.30;65.30
29663;DHT22;16578;53.266;7.920;2023-06-26T05:29:52;25.30;65.20
29663;DHT22;16578;53.266;7.920;2023-06-26T05:32:17;25.40;65.30
29663;DHT22;16578;53.266;7.920;2023-06-26T05:34:47;25.40;65.20
29663;DHT22;16578;53.266;7.920;2023-06-26T05:37:20;25.50;65.40
29663;DHT22;16578;53.266;7.920;2023-06-26T05:39:45;25.60;65.50
29663;DHT22;16578;53.266;7.920;2023-06-26T05:42:12;25.60;65.30
29663;DHT22;16578;53.266;7.920;2023-06-26T05:44:37;25.60;65.30
29663;DHT22;16578;53.266;7.920;2023-06-26T05:47:03;25.60;64.90
29663;DHT22;16578;53.266;7.920;2023-06-26T05:49:28;25.70;65.10
29663;DHT22;16578;53.266;7.920;2023-06-26T05:51:54;25.70;65.20
29663;DHT22;16578;53.266;7.920;2023-06-26T05:54:20;25.70;65.30
29663;DHT22;16578;53.266;7.920;2023-06-26T05:56:47;25.80;65.30
29663;DHT22;16578;53.266;7.920;2023-06-26T05:59:14;25.90;65.40
29663;DHT22;16578;53.266;7.920;2023-06-26T06:01:40;25.90;65.20
29663;DHT22;16578;53.266;7.920;2023-06-26T06:04:06;25.90;65.10
29663;DHT22;16578;53.266;7.920;2023-06-26T06:06:32;26.00;64.70
29663;DHT22;16578;53.266;7.920;2023-06-26T06:08:57;26.00;64.70
29663;DHT22;16578;53.266;7.920;2023-06-26T06:11:23;26.00;64.80
29663;DHT22;16578;53.266;7.920;2023-06-26T06:13:48;26.00;64.80
29663;DHT22;16578;53.266;7.920;2023-06-26T06:16:15;26.00;64.90
29663;DHT22;16578;53.266;7.920;2023-06-26T06:18:40;26.10;65.10
29663;DHT22;16578;53.266;7.920;2023-06-26T06:21:06;26.20;65.50
29663;DHT22;16578;53.266;7.920;2023-06-26T06:23:31;26.20;65.20
29663;DHT22;16578;53.266;7.920;2023-06-26T06:25:57;26.20;65.00
29663;DHT22;16578;53.266;7.920;2023-06-26T06:28:22;26.20;64.60
29663;DHT22;16578;53.266;7.920;2023-06-26T06:30:48;26.30;64.50
29663;DHT22;16578;53.266;7.920;2023-06-26T06:33:14;26.30;64.00
29663;DHT22;16578;53.266;7.920;2023-06-26T06:35:40;26.40;64.00
29663;DHT22;16578;53.266;7.920;2023-06-26T06:38:05;26.40;63.80
29663;DHT22;16578;53.266;7.920;2023-06-26T06:40:31;26.40;63.70
29663;DHT22;16578;53.266;7.920;2023-06-26T06:42:56;26.50;63.90
29663;DHT22;16578;53.266;7.920;2023-06-26T06:45:22;26.50;63.90
29663;DHT22;16578;53.266;7.920;2023-06-26T06:47:47;26.50;63.40
29663;DHT22;16578;53.266;7.920;2023-06-26T06:50:13;26.50;63.20
29663;DHT22;16578;53.266;7.920;2023-06-26T06:52:42;26.50;63.20
29663;DHT22;16578;53.266;7.920;2023-06-26T06:55:08;26.60;63.20
29663;DHT22;16578;53.266;7.920;2023-06-26T06:57:38;26.60;63.30
29663;DHT22;16578;53.266;7.920;2023-06-26T07:00:05;26.60;63.00
29663;DHT22;16578;53.266;7.920;2023-06-26T07:02:43;26.60;62.90
29663;DHT22;16578;53.266;7.920;2023-06-26T07:05:10;26.50;62.90
29663;DHT22;16578;53.266;7.920;2023-06-26T07:07:36;26.50;62.80
29663;DHT22;16578;53.266;7.920;2023-06-26T07:10:06;26.50;62.80
29663;DHT22;16578;53.266;7.920;2023-06-26T07:12:33;26.50;63.30
29663;DHT22;16578;53.266;7.920;2023-06-26T07:15:00;26.40;63.50
29663;DHT22;16578;53.266;7.920;2023-06-26T07:17:26;26.30;63.80
29663;DHT22;16578;53.266;7.920;2023-06-26T07:19:52;26.30;63.90
29663;DHT22;16578;53.266;7.920;2023-06-26T07:22:17;26.30;64.20
29663;DHT22;16578;53.266;7.920;2023-06-26T07:24:48;26.20;64.50
29663;DHT22;16578;53.266;7.920;2023-06-26T07:27:15;26.20;64.50
29663;DHT22;16578;53.266;7.920;2023-06-26T07:29:41;26.20;64.70
29663;DHT22;16578;53.266;7.920;2023-06-26T07:32:07;26.10;64.90
29663;DHT22;16578;53.266;7.920;2023-06-26T07:34:33;26.10;64.80
29663;DHT22;16578;53.266;7.920;2023-06-26T07:36:58;26.00;64.90
29663;DHT22;16578;53.266;7.920;2023-06-26T07:39:24;26.00;65.40
29663;DHT22;16578;53.266;7.920;2023-06-26T07:41:50;26.00;65.70
29663;DHT22;16578;53.266;7.920;2023-06-26T07:44:15;25.90;65.70
29663;DHT22;16578;53.266;7.920;2023-06-26T07:46:41;25.90;65.90
29663;DHT22;16578;53.266;7.920;2023-06-26T07:49:06;25.80;65.60
29663;DHT22;16578;53.266;7.920;2023-06-26T07:51:32;25.70;65.50
29663;DHT22;16578;53.266;7.920;2023-06-26T07:53:57;25.70;65.50
29663;DHT22;16578;53.266;7.920;2023-06-26T07:56:23;25.60;65.50
29663;DHT22;16578;53.266;7.920;2023-06-26T07:58:48;25.60;65.70
29663;DHT22;16578;53.266;7.920;2023-06-26T08:01:14;25.50;65.70
29663;DHT22;16578;53.266;7.920;2023-06-26T08:03:39;25.40;65.90
29663;DHT22;16578;53.266;7.920;2023-06-26T08:06:05;25.40;66.10
29663;DHT22;16578;53.266;7.920;2023-06-26T08:08:31;25.40;66.20
29663;DHT22;16578;53.266;7.920;2023-06-26T08:10:57;25.40;66.10
29663;DHT22;16578;53.266;7.920;2023-06-26T08:13:22;25.30;66.00
29663;DHT22;16578;53.266;7.920;2023-06-26T08:15:48;25.20;66.10
29663;DHT22;16578;53.266;7.920;2023-06-26T08:18:13;25.20;66.30
29663;DHT22;16578;53.266;7.920;2023-06-26T08:20:39;25.20;66.00
29663;DHT22;16578;53.266;7.920;2023-06-26T08:23:04;25.20;65.90
29663;DHT22;16578;53.266;7.920;2023-06-26T08:25:30;25.10;65.90
29663;DHT22;16578;53.266;7.920;2023-06-26T08:27:56;25.00;65.80
29663;DHT22;16578;53.266;7.920;2023-06-26T08:30:22;25.10;65.80
29663;DHT22;16578;53.266;7.920;2023-06-26T08:32:48;25.10;65.90
29663;DHT22;16578;53.266;7.920;2023-06-26T08:35:14;25.10;65.70
29663;DHT22;16578;53.266;7.920;2023-06-26T08:37:39;25.10;65.20
29663;DHT22;16578;53.266;7.920;2023-06-26T08:40:06;25.10;65.10
29663;DHT22;16578;53.266;7.920;2023-06-26T08:42:32;25.10;64.60
29663;DHT22;16578;53.266;7.920;2023-06-26T08:44:57;25.20;64.70
29663;DHT22;16578;53.266;7.920;2023-06-26T08:47:23;25.20;64.20
29663;DHT22;16578;53.266;7.920;2023-06-26T08:50:08;25.20;63.20
29663;DHT22;16578;53.266;7.920;2023-06-26T08:52:59;25.20;63.20
29663;DHT22;16578;53.266;7.920;2023-06-26T08:55:30;25.30;62.10
29663;DHT22;16578;53.266;7.920;2023-06-26T08:57:57;25.20;62.20
29663;DHT22;16578;53.266;7.920;2023-06-26T09:00:23;25.30;62.30
29663;DHT22;16578;53.266;7.920;2023-06-26T09:02:49;25.30;62.10
29663;DHT22;16578;53.266;7.920;2023-06-26T09:05:15;25.40;62.10
29663;DHT22;16578;53.266;7.920;2023-06-26T09:07:40;25.40;61.10
29663;DHT22;16578;53.266;7.920;2023-06-26T09:10:06;25.40;60.70
29663;DHT22;16578;53.266;7.920;2023-06-26T09:12:32;25.50;60.60
29663;DHT22;16578;53.266;7.920;2023-06-26T09:14:58;25.50;60.50
29663;DHT22;16578;53.266;7.920;2023-06-26T09:17:25;25.50;60.60
29663;DHT22;16578;53.266;7.920;2023-06-26T09:19:54;25.50;61.20
29663;DHT22;16578;53.266;7.920;2023-06-26T09:22:19;25.50;60.10
29663;DHT22;16578;53.266;7.920;2023-06-26T09:24:45;25.60;60.10
29663;DHT22;16578;53.266;7.920;2023-06-26T09:27:11;25.60;60.70
29663;DHT22;16578;53.266;7.920;2023-06-26T09:29:38;25.60;59.60
29663;DHT22;16578;53.266;7.920;2023-06-26T09:32:04;25.60;59.70
29663;DHT22;16578;53.266;7.920;2023-06-26T09:34:31;25.60;59.40
29663;DHT22;16578;53.266;7.920;2023-06-26T09:36:58;25.50;59.20
29663;DHT22;16578;53.266;7.920;2023-06-26T09:39:24;25.50;58.50
29663;DHT22;16578;53.266;7.920;2023-06-26T09:41:50;25.50;58.60
29663;DHT22;16578;53.266;7.920;2023-06-26T09:44:16;25.50;58.90
29663;DHT22;16578;53.266;7.920;2023-06-26T09:46:44;25.50;58.60
29663;DHT22;16578;53.266;7.920;2023-06-26T09:49:11;25.50;58.30
29663;DHT22;16578;53.266;7.920;2023-06-26T09:51:38;25.50;58.40
29663;DHT22;16578;53.266;7.920;2023-06-26T09:54:05;25.40;58.50
29663;DHT22;16578;53.266;7.920;2023-06-26T09:56:31;25.50;58.50
29663;DHT22;16578;53.266;7.920;2023-06-26T09:58:59;25.40;58.30
29663;DHT22;16578;53.266;7.920;2023-06-26T10:01:25;25.40;58.00
29663;DHT22;16578;53.266;7.920;2023-06-26T10:03:51;25.40;58.30
29663;DHT22;16578;53.266;7.920;2023-06-26T10:06:27;25.40;58.30
29663;DHT22;16578;53.266;7.920;2023-06-26T10:08:53;25.40;57.90
29663;DHT22;16578;53.266;7.920;2023-06-26T10:11:21;25.40;57.80
29663;DHT22;16578;53.266;7.920;2023-06-26T10:13:50;25.40;57.40
29663;DHT22;16578;53.266;7.920;2023-06-26T10:16:26;25.40;57.50
29663;DHT22;16578;53.266;7.920;2023-06-26T10:18:58;25.40;57.80
29663;DHT22;16578;53.266;7.920;2023-06-26T10:21:26;25.40;58.30
29663;DHT22;16578;53.266;7.920;2023-06-26T10:23:56;25.40;58.20
29663;DHT22;16578;53.266;7.920;2023-06-26T10:26:24;25.40;58.00
29663;DHT22;16578;53.266;7.920;2023-06-26T10:28:51;25.50;57.80
29663;DHT22;16578;53.266;7.920;2023-06-26T10:31:21;25.50;57.50
29663;DHT22;16578;53.266;7.920;2023-06-26T10:33:48;25.50;57.20
29663;DHT22;16578;53.266;7.920;2023-06-26T10:36:16;25.50;57.10
29663;DHT22;16578;53.266;7.920;2023-06-26T10:38:57;25.50;57.00
29663;DHT22;16578;53.266;7.920;2023-06-26T10:41:24;25.50;57.60
29663;DHT22;16578;53.266;7.920;2023-06-26T10:43:51;25.50;57.10
29663;DHT22;16578;53.266;7.920;2023-06-26T10:46:18;25.50;56.90
29663;DHT22;16578;53.266;7.920;2023-06-26T10:49:11;25.50;57.30
29663;DHT22;16578;53.266;7.920;2023-06-26T10:51:37;25.60;56.90
29663;DHT22;16578;53.266;7.920;2023-06-26T10:54:03;25.60;56.70
29663;DHT22;16578;53.266;7.920;2023-06-26T10:56:42;25.60;57.20
29663;DHT22;16578;53.266;7.920;2023-06-26T10:59:16;25.60;56.00
29663;DHT22;16578;53.266;7.920;2023-06-26T11:01:44;25.60;56.20
29663;DHT22;16578;53.266;7.920;2023-06-26T11:04:10;25.50;56.20
29663;DHT22;16578;53.266;7.920;2023-06-26T11:06:37;25.50;56.50
29663;DHT22;16578;53.266;7.920;2023-06-26T11:09:07;25.50;56.90
29663;DHT22;16578;53.266;7.920;2023-06-26T11:14:18;25.60;56.80
29663;DHT22;16578;53.266;7.920;2023-06-26T11:16:44;25.60;56.40
29663;DHT22;16578;53.266;7.920;2023-06-26T11:19:10;25.60;56.50
29663;DHT22;16578;53.266;7.920;2023-06-26T11:21:39;25.60;56.10
29663;DHT22;16578;53.266;7.920;2023-06-26T11:24:09;25.60;55.80
29663;DHT22;16578;53.266;7.920;2023-06-26T11:26:42;25.60;55.80
29663;DHT22;16578;53.266;7.920;2023-06-26T11:29:09;25.60;55.80
29663;DHT22;16578;53.266;7.920;2023-06-26T11:31:36;25.60;55.80
29663;DHT22;16578;53.266;7.920;2023-06-26T11:34:05;25.50;55.60
29663;DHT22;16578;53.266;7.920;2023-06-26T11:36:31;25.50;55.80
29663;DHT22;16578;53.266;7.920;2023-06-26T11:38:58;25.50;56.00
29663;DHT22;16578;53.266;7.920;2023-06-26T11:41:27;25.60;56.70
29663;DHT22;16578;53.266;7.920;2023-06-26T11:44:00;25.60;56.00
29663;DHT22;16578;53.266;7.920;2023-06-26T11:46:27;25.60;56.20
29663;DHT22;16578;53.266;7.920;2023-06-26T11:48:53;25.60;56.10
29663;DHT22;16578;53.266;7.920;2023-06-26T11:51:19;25.60;55.90
29663;DHT22;16578;53.266;7.920;2023-06-26T11:53:47;25.70;55.80
29663;DHT22;16578;53.266;7.920;2023-06-26T11:56:17;25.70;55.80
29663;DHT22;16578;53.266;7.920;2023-06-26T11:59:02;25.70;55.50
29663;DHT22;16578;53.266;7.920;2023-06-26T12:04:02;25.60;56.10
29663;DHT22;16578;53.266;7.920;2023-06-26T12:06:29;25.60;56.20
29663;DHT22;16578;53.266;7.920;2023-06-26T12:08:56;25.60;56.00
29663;DHT22;16578;53.266;7.920;2023-06-26T12:11:23;25.70;55.90
29663;DHT22;16578;53.266;7.920;2023-06-26T12:13:50;25.70;55.80
29663;DHT22;16578;53.266;7.920;2023-06-26T12:16:16;25.60;55.70
29663;DHT22;16578;53.266;7.920;2023-06-26T12:18:41;25.60;55.70
29663;DHT22;16578;53.266;7.920;2023-06-26T12:21:07;25.60;55.60
29663;DHT22;16578;53.266;7.920;2023-06-26T12:23:33;25.60;55.50
29663;DHT22;16578;53.266;7.920;2023-06-26T12:26:19;25.60;55.40
29663;DHT22;16578;53.266;7.920;2023-06-26T12:28:45;25.60;55.40
29663;DHT22;16578;53.266;7.920;2023-06-26T12:31:19;25.50;55.50
29663;DHT22;16578;53.266;7.920;2023-06-26T12:33:45;25.60;55.50
29663;DHT22;16578;53.266;7.920;2023-06-26T12:36:12;25.60;55.70
29663;DHT22;16578;53.266;7.920;2023-06-26T12:38:37;25.70;55.60
29663;DHT22;16578;53.266;7.920;2023-06-26T12:41:03;25.70;55.30
29663;DHT22;16578;53.266;7.920;2023-06-26T12:43:29;25.70;55.70
29663;DHT22;16578;53.266;7.920;2023-06-26T12:45:55;25.70;54.70
29663;DHT22;16578;53.266;7.920;2023-06-26T12:48:35;25.70;54.60
29663;DHT22;16578;53.266;7.920;2023-06-26T12:51:11;25.70;54.50
29663;DHT22;16578;53.266;7.920;2023-06-26T12:53:37;25.80;54.40
29663;DHT22;16578;53.266;7.920;2023-06-26T12:56:05;25.70;54.20
29663;DHT22;16578;53.266;7.920;2023-06-26T12:58:32;25.70;54.10
29663;DHT22;16578;53.266;7.920;2023-06-26T13:00:57;25.70;54.10
29663;DHT22;16578;53.266;7.920;2023-06-26T13:03:23;25.70;54.00
29663;DHT22;16578;53.266;7.920;2023-06-26T13:05:49;25.70;53.80
29663;DHT22;16578;53.266;7.920;2023-06-26T13:08:14;25.70;53.70
29663;DHT22;16578;53.266;7.920;2023-06-26T13:10:42;25.60;54.00
29663;DHT22;16578;53.266;7.920;2023-06-26T13:13:10;25.60;54.10
29663;DHT22;16578;53.266;7.920;2023-06-26T13:15:35;25.60;53.90
29663;DHT22;16578;53.266;7.920;2023-06-26T13:18:01;25.60;53.70
29663;DHT22;16578;53.266;7.920;2023-06-26T13:20:26;25.60;53.70
29663;DHT22;16578;53.266;7.920;2023-06-26T13:22:53;25.50;53.70
29663;DHT22;16578;53.266;7.920;2023-06-26T13:25:20;25.50;53.70
29663;DHT22;16578;53.266;7.920;2023-06-26T13:27:45;25.40;54.50
29663;DHT22;16578;53.266;7.920;2023-06-26T13:30:12;25.40;53.70
29663;DHT22;16578;53.266;7.920;2023-06-26T13:32:38;25.40;53.80
29663;DHT22;16578;53.266;7.920;2023-06-26T13:35:04;25.30;54.00
29663;DHT22;16578;53.266;7.920;2023-06-26T13:37:30;25.20;54.00
29663;DHT22;16578;53.266;7.920;2023-06-26T13:39:55;25.20;54.30
29663;DHT22;16578;53.266;7.920;2023-06-26T13:42:23;25.20;54.50
29663;DHT22;16578;53.266;7.920;2023-06-26T13:44:48;25.20;54.30
29663;DHT22;16578;53.266;7.920;2023-06-26T13:47:15;25.20;54.20
29663;DHT22;16578;53.266;7.920;2023-06-26T13:49:40;25.20;54.30
29663;DHT22;16578;53.266;7.920;2023-06-26T13:52:06;25.20;54.40
29663;DHT22;16578;53.266;7.920;2023-06-26T13:54:36;25.20;54.30
29663;DHT22;16578;53.266;7.920;2023-06-26T13:57:05;25.20;54.40
29663;DHT22;16578;53.266;7.920;2023-06-26T13:59:30;25.20;54.50
29663;DHT22;16578;53.266;7.920;2023-06-26T14:01:56;25.20;54.80
29663;DHT22;16578;53.266;7.920;2023-06-26T14:04:22;25.20;54.70
29663;DHT22;16578;53.266;7.920;2023-06-26T14:06:48;25.20;54.60
29663;DHT22;16578;53.266;7.920;2023-06-26T14:09:14;25.30;54.30
29663;DHT22;16578;53.266;7.920;2023-06-26T14:11:39;25.30;54.00
29663;DHT22;16578;53.266;7.920;2023-06-26T14:14:05;25.30;53.90
29663;DHT22;16578;53.266;7.920;2023-06-26T14:16:30;25.30;53.80
29663;DHT22;16578;53.266;7.920;2023-06-26T14:18:57;25.30;53.70
29663;DHT22;16578;53.266;7.920;2023-06-26T14:21:22;25.30;53.70
29663;DHT22;16578;53.266;7.920;2023-06-26T14:23:48;25.30;53.50
29663;DHT22;16578;53.266;7.920;2023-06-26T14:26:14;25.30;53.60
29663;DHT22;16578;53.266;7.920;2023-06-26T14:28:40;25.30;53.20
29663;DHT22;16578;53.266;7.920;2023-06-26T14:31:06;25.30;53.10
29663;DHT22;16578;53.266;7.920;2023-06-26T14:33:31;25.30;53.20
29663;DHT22;16578;53.266;7.920;2023-06-26T14:35:57;25.40;53.30
29663;DHT22;16578;53.266;7.920;2023-06-26T14:38:23;25.30;52.80
29663;DHT22;16578;53.266;7.920;2023-06-26T14:40:48;25.30;52.50
29663;DHT22;16578;53.266;7.920;2023-06-26T14:43:14;25.30;52.40
29663;DHT22;16578;53.266;7.920;2023-06-26T14:45:39;25.30;52.40
29663;DHT22;16578;53.266;7.920;2023-06-26T14:48:05;25.30;52.20
29663;DHT22;16578;53.266;7.920;2023-06-26T14:50:30;25.30;52.00
29663;DHT22;16578;53.266;7.920;2023-06-26T14:52:56;25.20;51.60
29663;DHT22;16578;53.266;7.920;2023-06-26T14:55:22;25.20;51.70
29663;DHT22;16578;53.266;7.920;2023-06-26T14:57:47;25.20;51.90
29663;DHT22;16578;53.266;7.920;2023-06-26T15:00:13;25.10;51.90
29663;DHT22;16578;53.266;7.920;2023-06-26T15:02:39;25.20;52.10
29663;DHT22;16578;53.266;7.920;2023-06-26T15:05:05;25.20;51.90
29663;DHT22;16578;53.266;7.920;2023-06-26T15:07:30;25.20;51.80
29663;DHT22;16578;53.266;7.920;2023-06-26T15:09:56;25.20;51.80
29663;DHT22;16578;53.266;7.920;2023-06-26T15:12:22;25.20;51.70
29663;DHT22;16578;53.266;7.920;2023-06-26T15:14:49;25.20;51.50
29663;DHT22;16578;53.266;7.920;2023-06-26T15:17:14;25.10;51.40
29663;DHT22;16578;53.266;7.920;2023-06-26T15:19:40;25.10;51.30
29663;DHT22;16578;53.266;7.920;2023-06-26T15:22:06;25.10;51.30
29663;DHT22;16578;53.266;7.920;2023-06-26T15:24:32;25.00;51.30
29663;DHT22;16578;53.266;7.920;2023-06-26T15:26:57;25.00;51.60
29663;DHT22;16578;53.266;7.920;2023-06-26T15:29:23;25.00;51.60
29663;DHT22;16578;53.266;7.920;2023-06-26T15:31:49;25.00;51.60
29663;DHT22;16578;53.266;7.920;2023-06-26T15:34:14;25.00;51.90